createdAt,value
2018-08-14T00:00:16.603Z,99296.00
2018-08-14T00:02:45.723Z,99295.00
2018-08-14T00:05:23.641Z,99291.00
2018-08-14T00:07:51.195Z,99289.00
2018-08-14T00:10:18.863Z,99293.00
2018-08-14T00:12:46.643Z,99291.00
2018-08-14T00:15:14.955Z,99294.00
2018-08-14T00:17:44.752Z,99292.00
2018-08-14T00:20:14.300Z,99293.00
2018-08-14T00:22:41.839Z,99288.00
2018-08-14T00:25:09.974Z,99293.00
2018-08-14T00:27:38.567Z,99294.00
2018-08-14T00:30:16.089Z,99292.00
2018-08-14T00:32:43.790Z,99295.00
2018-08-14T00:35:11.452Z,99295.00
2018-08-14T00:37:39.279Z,99296.00
2018-08-14T00:40:11.710Z,99298.00
2018-08-14T00:42:40.043Z,99300.00
2018-08-14T00:45:11.204Z,99306.00
2018-08-14T00:47:39.211Z,99308.00
2018-08-14T00:50:08.460Z,99304.00
2018-08-14T00:52:36.057Z,99300.00
2018-08-14T00:55:05.161Z,99301.00
2018-08-14T00:57:32.900Z,99307.00
2018-08-14T01:00:00.584Z,99294.00
2018-08-14T01:02:28.287Z,99297.00
2018-08-14T01:04:56.114Z,99304.00
2018-08-14T01:07:23.764Z,99300.00
2018-08-14T01:09:58.480Z,99295.00
2018-08-14T01:12:26.379Z,99294.00
2018-08-14T01:14:53.975Z,99293.00
2018-08-14T01:17:21.616Z,99290.00
2018-08-14T01:19:49.365Z,99288.00
2018-08-14T01:22:16.961Z,99284.00
2018-08-14T01:24:44.535Z,99282.00
2018-08-14T01:27:12.414Z,99279.00
2018-08-14T01:29:42.253Z,99273.00
2018-08-14T01:32:09.836Z,99270.00
2018-08-14T01:34:37.737Z,99278.00
2018-08-14T01:37:06.786Z,99278.00
2018-08-14T01:39:34.384Z,99281.00
2018-08-14T01:42:01.972Z,99289.00
2018-08-14T01:44:29.837Z,99287.00
2018-08-14T01:46:57.462Z,99288.00
2018-08-14T01:49:25.051Z,99294.00
2018-08-14T01:51:52.957Z,99291.00
2018-08-14T01:54:20.610Z,99294.00
2018-08-14T01:56:48.209Z,99298.00
2018-08-14T01:59:15.852Z,99302.00
2018-08-14T02:01:43.568Z,99305.00
2018-08-14T02:04:10.841Z,99305.00
2018-08-14T02:06:38.532Z,99309.00
2018-08-14T02:09:08.725Z,99307.00
2018-08-14T02:11:36.428Z,99314.00
2018-08-14T02:14:04.027Z,99315.00
2018-08-14T02:16:31.731Z,99315.00
2018-08-14T02:18:59.380Z,99314.00
2018-08-14T02:21:26.944Z,99319.00
2018-08-14T02:23:54.778Z,99319.00
2018-08-14T02:26:22.344Z,99318.00
2018-08-14T02:28:50.098Z,99327.00
2018-08-14T02:31:17.907Z,99332.00
2018-08-14T02:33:45.524Z,99334.00
2018-08-14T02:36:13.128Z,99338.00
2018-08-14T02:38:40.913Z,99344.00
2018-08-14T02:41:08.473Z,99345.00
2018-08-14T02:43:36.053Z,99346.00
2018-08-14T02:46:03.880Z,99348.00
2018-08-14T02:48:31.472Z,99348.00
2018-08-14T02:53:33.466Z,99348.00
2018-08-14T02:56:01.066Z,99347.00
2018-08-14T02:58:29.001Z,99343.00
2018-08-14T03:00:56.475Z,99342.00
2018-08-14T03:03:24.099Z,99347.00
2018-08-14T03:05:52.409Z,99351.00
2018-08-14T03:08:20.098Z,99352.00
2018-08-14T03:10:47.688Z,99352.00
2018-08-14T03:13:15.394Z,99356.00
2018-08-14T03:15:42.963Z,99356.00
2018-08-14T03:18:10.682Z,99352.00
2018-08-14T03:20:39.570Z,99357.00
2018-08-14T03:23:08.844Z,99357.00
2018-08-14T03:25:36.789Z,99360.00
2018-08-14T03:28:05.185Z,99358.00
2018-08-14T03:30:33.068Z,99363.00
2018-08-14T03:33:06.192Z,99363.00
2018-08-14T03:35:41.068Z,99364.00
2018-08-14T03:38:27.456Z,99364.00
2018-08-14T03:40:55.049Z,99365.00
2018-08-14T03:43:22.840Z,99369.00
2018-08-14T03:45:50.741Z,99367.00
2018-08-14T03:48:18.429Z,99372.00
2018-08-14T03:50:45.988Z,99374.00
2018-08-14T03:53:13.624Z,99374.00
2018-08-14T03:55:41.173Z,99374.00
2018-08-14T03:58:08.739Z,99377.00
2018-08-14T04:00:36.665Z,99383.00
2018-08-14T04:03:04.833Z,99379.00
2018-08-14T04:05:32.544Z,99380.00
2018-08-14T04:08:00.832Z,99384.00
2018-08-14T04:10:28.789Z,99385.00
2018-08-14T04:12:56.434Z,99388.00
2018-08-14T04:15:24.068Z,99393.00
2018-08-14T04:17:58.222Z,99407.00
2018-08-14T04:20:26.086Z,99405.00
2018-08-14T04:22:53.742Z,99410.00
2018-08-14T04:25:21.358Z,99413.00
2018-08-14T04:27:49.117Z,99417.00
2018-08-14T04:30:16.678Z,99411.00
2018-08-14T04:32:44.789Z,99415.00
2018-08-14T04:35:13.219Z,99415.00
2018-08-14T04:37:40.792Z,99421.00
2018-08-14T04:40:09.628Z,99426.00
2018-08-14T04:42:37.676Z,99432.00
2018-08-14T04:45:05.312Z,99434.00
2018-08-14T04:47:32.889Z,99440.00
2018-08-14T04:50:00.593Z,99441.00
2018-08-14T04:52:28.167Z,99441.00
2018-08-14T04:54:55.749Z,99437.00
2018-08-14T04:57:23.666Z,99443.00
2018-08-14T04:59:51.211Z,99447.00
2018-08-14T05:02:19.276Z,99447.00
2018-08-14T05:04:47.482Z,99451.00
2018-08-14T05:07:16.348Z,99455.00
2018-08-14T05:09:43.768Z,99453.00
2018-08-14T05:12:11.364Z,99455.00
2018-08-14T05:14:39.338Z,99457.00
2018-08-14T05:17:06.924Z,99461.00
2018-08-14T05:19:34.628Z,99466.00
2018-08-14T05:22:03.205Z,99466.00
2018-08-14T05:24:30.799Z,99463.00
2018-08-14T05:26:58.353Z,99463.00
2018-08-14T05:29:26.325Z,99464.00
2018-08-14T05:31:53.884Z,99479.00
2018-08-14T05:34:21.489Z,99475.00
2018-08-14T05:36:49.069Z,99485.00
2018-08-14T05:39:16.889Z,99484.00
2018-08-14T05:41:44.624Z,99483.00
2018-08-14T05:44:22.568Z,99478.00
2018-08-14T05:46:50.182Z,99485.00
2018-08-14T05:49:17.928Z,99487.00
2018-08-14T05:51:46.372Z,99485.00
2018-08-14T05:54:13.992Z,99486.00
2018-08-14T05:56:43.002Z,99484.00
2018-08-14T05:59:11.181Z,99486.00
2018-08-14T06:01:39.498Z,99485.00
2018-08-14T06:04:07.306Z,99488.00
2018-08-14T06:06:35.080Z,99493.00
2018-08-14T06:09:04.819Z,99492.00
2018-08-14T06:11:32.384Z,99492.00
2018-08-14T06:14:00.117Z,99491.00
2018-08-14T06:16:27.791Z,99490.00
2018-08-14T06:18:55.369Z,99486.00
2018-08-14T06:21:22.932Z,99492.00
2018-08-14T06:23:50.747Z,99499.00
2018-08-14T06:26:18.276Z,99493.00
2018-08-14T06:28:46.129Z,99493.00
2018-08-14T06:31:14.149Z,99492.00
2018-08-14T06:33:41.769Z,99502.00
2018-08-14T06:36:10.252Z,99507.00
2018-08-14T06:38:38.260Z,99505.00
2018-08-14T06:41:06.267Z,99511.00
2018-08-14T06:43:34.161Z,99508.00
2018-08-14T06:46:01.884Z,99506.00
2018-08-14T06:48:29.663Z,99508.00
2018-08-14T06:50:57.396Z,99512.00
2018-08-14T06:53:25.022Z,99506.00
2018-08-14T06:55:53.221Z,99508.00
2018-08-14T06:58:20.925Z,99518.00
2018-08-14T07:00:48.492Z,99517.00
2018-08-14T07:03:16.287Z,99523.00
2018-08-14T07:05:43.807Z,99524.00
2018-08-14T07:08:11.400Z,99525.00
2018-08-14T07:10:39.400Z,99520.00
2018-08-14T07:13:07.036Z,99518.00
2018-08-14T07:15:34.723Z,99525.00
2018-08-14T07:18:02.709Z,99520.00
2018-08-14T07:20:30.318Z,99517.00
2018-08-14T07:22:57.907Z,99516.00
2018-08-14T07:25:25.608Z,99517.00
2018-08-14T07:27:53.220Z,99516.00
2018-08-14T07:30:22.992Z,99513.00
2018-08-14T07:32:50.909Z,99514.00
2018-08-14T07:35:18.821Z,99522.00
2018-08-14T07:37:46.560Z,99519.00
2018-08-14T07:40:14.293Z,99517.00
2018-08-14T07:42:42.068Z,99522.00
2018-08-14T07:45:12.684Z,99521.00
2018-08-14T07:47:40.695Z,99518.00
2018-08-14T07:50:09.114Z,99520.00
2018-08-14T07:52:36.999Z,99515.00
2018-08-14T07:55:06.096Z,99518.00
2018-08-14T07:57:33.757Z,99520.00
2018-08-14T08:00:01.559Z,99515.00
2018-08-14T08:02:29.160Z,99524.00
2018-08-14T08:04:56.739Z,99524.00
2018-08-14T08:07:24.539Z,99529.00
2018-08-14T08:09:52.129Z,99527.00
2018-08-14T08:12:19.786Z,99530.00
2018-08-14T08:14:47.533Z,99534.00
2018-08-14T08:17:15.179Z,99531.00
2018-08-14T08:19:44.129Z,99530.00
2018-08-14T08:22:11.802Z,99536.00
2018-08-14T08:24:39.512Z,99534.00
2018-08-14T08:27:07.348Z,99547.00
2018-08-14T08:29:35.137Z,99531.00
2018-08-14T08:32:02.798Z,99534.00
2018-08-14T08:34:30.672Z,99539.00
2018-08-14T08:36:58.198Z,99536.00
2018-08-14T08:39:25.774Z,99530.00
2018-08-14T08:41:53.470Z,99530.00
2018-08-14T08:44:21.061Z,99523.00
2018-08-14T08:46:48.600Z,99532.00
2018-08-14T08:49:16.481Z,99533.00
2018-08-14T08:51:44.294Z,99533.00
2018-08-14T08:54:12.169Z,99537.00
2018-08-14T08:56:39.927Z,99536.00
2018-08-14T08:59:07.553Z,99534.00
2018-08-14T09:01:35.325Z,99541.00
2018-08-14T09:04:03.340Z,99539.00
2018-08-14T09:06:31.047Z,99545.00
2018-08-14T09:08:58.635Z,99535.00
2018-08-14T09:11:26.462Z,99543.00
2018-08-14T09:13:54.085Z,99540.00
2018-08-14T09:16:22.105Z,99543.00
2018-08-14T09:18:50.493Z,99551.00
2018-08-14T09:21:18.130Z,99546.00
2018-08-14T09:23:45.766Z,99543.00
2018-08-14T09:26:13.578Z,99550.00
2018-08-14T09:28:41.189Z,99548.00
2018-08-14T09:31:08.813Z,99547.00
2018-08-14T09:33:36.405Z,99540.00
2018-08-14T09:36:04.109Z,99543.00
2018-08-14T09:38:31.660Z,99540.00
2018-08-14T09:41:00.405Z,99543.00
2018-08-14T09:43:29.054Z,99545.00
2018-08-14T09:45:56.612Z,99549.00
2018-08-14T09:48:24.217Z,99544.00
2018-08-14T09:50:51.825Z,99543.00
2018-08-14T09:53:19.441Z,99543.00
2018-08-14T09:55:47.154Z,99539.00
2018-08-14T09:58:15.172Z,99541.00
2018-08-14T10:00:55.681Z,99537.00
2018-08-14T10:03:29.162Z,99535.00
2018-08-14T10:06:02.588Z,99531.00
2018-08-14T10:08:30.260Z,99538.00
2018-08-14T10:10:57.852Z,99539.00
2018-08-14T10:13:25.865Z,99535.00
2018-08-14T10:15:53.424Z,99533.00
2018-08-14T10:18:23.526Z,99536.00
2018-08-14T10:20:51.704Z,99530.00
2018-08-14T10:23:19.320Z,99519.00
2018-08-14T10:25:46.965Z,99530.00
2018-08-14T10:28:17.224Z,99523.00
2018-08-14T10:30:44.804Z,99526.00
2018-08-14T10:33:12.508Z,99524.00
2018-08-14T10:35:40.089Z,99533.00
2018-08-14T10:38:08.037Z,99527.00
2018-08-14T10:40:35.642Z,99532.00
2018-08-14T10:43:03.764Z,99536.00
2018-08-14T10:45:31.310Z,99542.00
2018-08-14T10:47:58.869Z,99532.00
2018-08-14T10:50:26.577Z,99524.00
2018-08-14T10:52:54.171Z,99532.00
2018-08-14T10:55:21.754Z,99523.00
2018-08-14T10:57:49.927Z,99527.00
2018-08-14T11:00:21.155Z,99519.00
2018-08-14T11:02:49.154Z,99524.00
2018-08-14T11:05:18.422Z,99520.00
2018-08-14T11:07:46.664Z,99525.00
2018-08-14T11:10:16.828Z,99517.00
2018-08-14T11:12:44.916Z,99526.00
2018-08-14T11:15:12.947Z,99521.00
2018-08-14T11:17:40.524Z,99524.00
2018-08-14T11:20:18.070Z,99529.00
2018-08-14T11:22:46.179Z,99527.00
2018-08-14T11:25:14.004Z,99529.00
2018-08-14T11:27:41.838Z,99538.00
2018-08-14T11:30:20.239Z,99544.00
2018-08-14T11:32:48.289Z,99541.00
2018-08-14T11:35:16.529Z,99544.00
2018-08-14T11:37:44.111Z,99543.00
2018-08-14T11:40:12.609Z,99540.00
2018-08-14T11:42:40.448Z,99547.00
2018-08-14T11:45:19.341Z,99552.00
2018-08-14T11:47:47.121Z,99547.00
2018-08-14T11:50:15.823Z,99546.00
2018-08-14T11:52:45.358Z,99555.00
2018-08-14T11:55:13.708Z,99553.00
2018-08-14T11:57:41.624Z,99552.00
2018-08-14T12:00:18.604Z,99559.00
2018-08-14T12:02:47.094Z,99553.00
2018-08-14T12:05:15.056Z,99556.00
2018-08-14T12:07:43.056Z,99560.00
2018-08-14T12:10:12.749Z,99555.00
2018-08-14T12:12:41.345Z,99553.00
2018-08-14T12:15:10.287Z,99556.00
2018-08-14T12:17:37.957Z,99551.00
2018-08-14T12:20:06.974Z,99548.00
2018-08-14T12:22:34.692Z,99548.00
2018-08-14T12:25:02.184Z,99554.00
2018-08-14T12:27:29.719Z,99547.00
2018-08-14T12:29:57.352Z,99554.00
2018-08-14T12:32:24.935Z,99550.00
2018-08-14T12:34:52.580Z,99552.00
2018-08-14T12:37:20.360Z,99539.00
2018-08-14T12:39:47.937Z,99546.00
2018-08-14T12:42:15.632Z,99551.00
2018-08-14T12:44:43.478Z,99543.00
2018-08-14T12:47:11.033Z,99542.00
2018-08-14T12:49:38.594Z,99538.00
2018-08-14T12:52:06.478Z,99544.00
2018-08-14T12:54:34.041Z,99539.00
2018-08-14T12:57:01.609Z,99540.00
2018-08-14T12:59:29.505Z,99541.00
2018-08-14T13:01:57.189Z,99540.00
2018-08-14T13:04:24.704Z,99540.00
2018-08-14T13:06:52.465Z,99548.00
2018-08-14T13:09:20.615Z,99548.00
2018-08-14T13:11:49.290Z,99541.00
2018-08-14T13:14:17.217Z,99533.00
2018-08-14T13:16:44.897Z,99535.00
2018-08-14T13:19:13.010Z,99539.00
2018-08-14T13:21:41.392Z,99541.00
2018-08-14T13:24:08.792Z,99543.00
2018-08-14T13:26:36.366Z,99552.00
2018-08-14T13:29:04.224Z,99546.00
2018-08-14T13:31:31.769Z,99549.00
2018-08-14T13:33:59.312Z,99548.00
2018-08-14T13:36:27.225Z,99549.00
2018-08-14T13:38:54.764Z,99550.00
2018-08-14T13:41:22.333Z,99552.00
2018-08-14T13:43:49.900Z,99554.00
2018-08-14T13:46:17.490Z,99544.00
2018-08-14T13:48:45.098Z,99550.00
2018-08-14T13:51:12.669Z,99547.00
2018-08-14T13:53:40.249Z,99552.00
2018-08-14T13:56:08.061Z,99556.00
2018-08-14T13:58:35.684Z,99561.00
2018-08-14T14:01:03.233Z,99561.00
2018-08-14T14:03:31.524Z,99559.00
2018-08-14T14:05:59.094Z,99556.00
2018-08-14T14:08:26.629Z,99557.00
2018-08-14T14:10:54.293Z,99549.00
2018-08-14T14:13:21.855Z,99561.00
2018-08-14T14:15:49.407Z,99552.00
2018-08-14T14:18:16.981Z,99559.00
2018-08-14T14:20:44.654Z,99564.00
2018-08-14T14:23:12.339Z,99562.00
2018-08-14T14:25:40.074Z,99557.00
2018-08-14T14:28:07.629Z,99558.00
2018-08-14T14:30:35.457Z,99563.00
2018-08-14T14:33:03.018Z,99566.00
2018-08-14T14:35:30.780Z,99560.00
2018-08-14T14:37:58.363Z,99566.00
2018-08-14T14:40:27.254Z,99568.00
2018-08-14T14:42:57.537Z,99573.00
2018-08-14T14:45:25.081Z,99578.00
2018-08-14T14:47:52.673Z,99574.00
2018-08-14T14:50:20.538Z,99575.00
2018-08-14T14:52:48.081Z,99573.00
2018-08-14T14:55:18.306Z,99562.00
2018-08-14T14:57:46.364Z,99566.00
2018-08-14T15:00:21.714Z,99573.00
2018-08-14T15:02:52.533Z,99572.00
2018-08-14T15:08:00.818Z,99574.00
2018-08-14T15:10:28.518Z,99581.00
2018-08-14T15:12:56.060Z,99582.00
2018-08-14T15:15:23.924Z,99584.00
2018-08-14T15:17:51.735Z,99585.00
2018-08-14T15:20:24.066Z,99584.00
2018-08-14T15:22:53.307Z,99586.00
2018-08-14T15:25:21.684Z,99583.00
2018-08-14T15:29:16.009Z,99585.00
2018-08-14T15:31:57.538Z,99591.00
2018-08-14T15:34:27.725Z,99584.00
2018-08-14T15:36:57.928Z,99592.00
2018-08-14T15:39:45.325Z,99596.00
2018-08-14T15:42:51.852Z,99603.00
2018-08-14T15:45:28.404Z,99593.00
2018-08-14T15:47:55.940Z,99588.00
2018-08-14T15:50:23.709Z,99591.00
2018-08-14T15:52:51.569Z,99586.00
2018-08-14T15:55:19.099Z,99593.00
2018-08-14T15:57:46.929Z,99593.00
2018-08-14T16:00:14.474Z,99591.00
2018-08-14T16:02:42.024Z,99592.00
2018-08-14T16:05:09.840Z,99606.00
2018-08-14T16:07:37.442Z,99602.00
2018-08-14T16:10:05.344Z,99608.00
2018-08-14T16:12:34.615Z,99613.00
2018-08-14T16:15:02.640Z,99610.00
2018-08-14T16:17:30.160Z,99612.00
2018-08-14T16:19:57.920Z,99613.00
2018-08-14T16:22:25.464Z,99618.00
2018-08-14T16:24:53.025Z,99617.00
2018-08-14T16:27:20.822Z,99623.00
2018-08-14T16:29:48.331Z,99618.00
2018-08-14T16:32:15.981Z,99632.00
2018-08-14T16:34:43.990Z,99630.00
2018-08-14T16:37:11.549Z,99630.00
2018-08-14T16:39:39.128Z,99631.00
2018-08-14T16:42:07.068Z,99635.00
2018-08-14T16:44:34.943Z,99642.00
2018-08-14T16:47:02.510Z,99645.00
2018-08-14T16:49:30.043Z,99649.00
2018-08-14T16:51:58.067Z,99644.00
2018-08-14T16:54:25.596Z,99651.00
2018-08-14T16:56:53.231Z,99649.00
2018-08-14T16:59:20.862Z,99645.00
2018-08-14T17:01:48.478Z,99650.00
2018-08-14T17:04:16.014Z,99652.00
2018-08-14T17:06:43.608Z,99660.00
2018-08-14T17:09:11.189Z,99661.00
2018-08-14T17:11:38.817Z,99665.00
2018-08-14T17:14:06.771Z,99657.00
2018-08-14T17:16:34.339Z,99671.00
2018-08-14T17:19:02.929Z,99679.00
2018-08-14T17:21:29.429Z,99681.00
2018-08-14T17:23:57.032Z,99689.00
2018-08-14T17:26:25.333Z,99689.00
2018-08-14T17:28:52.873Z,99693.00
2018-08-14T17:31:20.472Z,99696.00
2018-08-14T17:33:48.045Z,99703.00
2018-08-14T17:36:15.844Z,99712.00
2018-08-14T17:38:44.233Z,99714.00
2018-08-14T17:41:12.076Z,99712.00
2018-08-14T17:43:39.976Z,99717.00
2018-08-14T17:46:07.538Z,99724.00
2018-08-14T17:48:35.112Z,99723.00
2018-08-14T17:51:02.750Z,99722.00
2018-08-14T17:53:30.352Z,99725.00
2018-08-14T17:55:57.955Z,99729.00
2018-08-14T17:58:25.947Z,99715.00
2018-08-14T18:00:53.480Z,99719.00
2018-08-14T18:03:21.022Z,99726.00
2018-08-14T18:05:48.884Z,99734.00
2018-08-14T18:08:16.441Z,99737.00
2018-08-14T18:10:44.101Z,99740.00
2018-08-14T18:13:11.787Z,99742.00
2018-08-14T18:15:39.388Z,99744.00
2018-08-14T18:18:07.283Z,99744.00
2018-08-14T18:20:34.870Z,99747.00
2018-08-14T18:23:02.444Z,99751.00
2018-08-14T18:25:30.071Z,99756.00
2018-08-14T18:27:57.975Z,99763.00
2018-08-14T18:30:25.591Z,99764.00
2018-08-14T18:32:53.973Z,99770.00
2018-08-14T18:35:21.837Z,99774.00
2018-08-14T18:37:49.840Z,99775.00
2018-08-14T18:40:19.181Z,99778.00
2018-08-14T18:42:47.480Z,99775.00
2018-08-14T18:45:17.071Z,99779.00
2018-08-14T18:47:44.745Z,99784.00
2018-08-14T18:50:14.063Z,99787.00
2018-08-14T18:52:42.771Z,99798.00
2018-08-14T18:55:12.807Z,99800.00
2018-08-14T18:57:41.265Z,99808.00
2018-08-14T19:00:48.328Z,99808.00
2018-08-14T19:03:55.229Z,99815.00
2018-08-14T19:07:01.960Z,99817.00
2018-08-14T19:10:07.957Z,99825.00
2018-08-14T19:13:14.664Z,99835.00
2018-08-14T19:16:20.960Z,99834.00
2018-08-14T19:19:27.320Z,99839.00
2018-08-14T19:22:33.448Z,99832.00
2018-08-14T19:25:39.433Z,99829.00
2018-08-14T19:28:45.712Z,99839.00
2018-08-14T19:31:51.676Z,99834.00
2018-08-14T19:34:19.785Z,99843.00
2018-08-14T19:36:47.439Z,99838.00
2018-08-14T19:39:15.189Z,99844.00
2018-08-14T19:41:44.196Z,99849.00
2018-08-14T19:44:12.701Z,99849.00
2018-08-14T19:46:41.194Z,99859.00
2018-08-14T19:49:09.077Z,99863.00
2018-08-14T19:51:36.713Z,99862.00
2018-08-14T19:54:04.478Z,99865.00
2018-08-14T19:56:32.473Z,99865.00
2018-08-14T19:59:00.492Z,99867.00
2018-08-14T20:01:28.334Z,99865.00
2018-08-14T20:03:55.920Z,99869.00
2018-08-14T20:06:23.601Z,99877.00
2018-08-14T20:08:51.372Z,99877.00
2018-08-14T20:11:18.966Z,99896.00
2018-08-14T20:13:47.076Z,99898.00
2018-08-14T20:16:14.674Z,99912.00
2018-08-14T20:18:42.366Z,99915.00
2018-08-14T20:21:10.308Z,99920.00
2018-08-14T20:23:37.983Z,99925.00
2018-08-14T20:26:05.488Z,99935.00
2018-08-14T20:28:33.641Z,99939.00
2018-08-14T20:31:01.226Z,99944.00
2018-08-14T20:33:29.025Z,99948.00
2018-08-14T20:35:56.525Z,99953.00
2018-08-14T20:38:24.528Z,99957.00
2018-08-14T20:40:52.157Z,99954.00
2018-08-14T20:43:19.730Z,99956.00
2018-08-14T20:45:47.320Z,99956.00
2018-08-14T20:48:14.891Z,99956.00
2018-08-14T20:50:42.777Z,99957.00
2018-08-14T20:53:10.731Z,99951.00
2018-08-14T20:55:38.405Z,99952.00
2018-08-14T20:58:07.255Z,99950.00
2018-08-14T21:00:35.086Z,99957.00
2018-08-14T21:03:02.624Z,99959.00
2018-08-14T21:05:30.272Z,99962.00
2018-08-14T21:07:58.144Z,99961.00
2018-08-14T21:10:25.719Z,99970.00
2018-08-14T21:12:53.670Z,99967.00
2018-08-14T21:15:27.026Z,99969.00
2018-08-14T21:17:54.746Z,99967.00
2018-08-14T21:20:22.421Z,99970.00
2018-08-14T21:22:50.557Z,99975.00
2018-08-14T21:25:18.544Z,99968.00
2018-08-14T21:27:46.192Z,99966.00
2018-08-14T21:30:15.321Z,99971.00
2018-08-14T21:32:43.245Z,99972.00
2018-08-14T21:35:15.732Z,99974.00
2018-08-14T21:37:43.056Z,99971.00
2018-08-14T21:40:15.284Z,99971.00
2018-08-14T21:42:44.440Z,99969.00
2018-08-14T21:45:13.544Z,99971.00
2018-08-14T21:47:41.596Z,99973.00
2018-08-14T21:50:09.253Z,99969.00
2018-08-14T21:52:37.468Z,99968.00
2018-08-14T21:55:06.928Z,99967.00
2018-08-14T21:57:34.497Z,99967.00
2018-08-14T22:00:11.518Z,99967.00
2018-08-14T22:02:39.148Z,99973.00
2018-08-14T22:05:06.732Z,99969.00
2018-08-14T22:07:34.673Z,99975.00
2018-08-14T22:10:02.392Z,99972.00
2018-08-14T22:12:29.945Z,99973.00
2018-08-14T22:14:57.864Z,99972.00
2018-08-14T22:17:25.505Z,99973.00
2018-08-14T22:19:53.127Z,99972.00
2018-08-14T22:22:21.569Z,99974.00
2018-08-14T22:24:49.299Z,99976.00
2018-08-14T22:27:17.112Z,99972.00
2018-08-14T22:29:44.708Z,99978.00
2018-08-14T22:32:12.357Z,99975.00
2018-08-14T22:34:40.272Z,99977.00
2018-08-14T22:37:07.932Z,99975.00
2018-08-14T22:39:35.743Z,99975.00
2018-08-14T22:42:03.688Z,99973.00
2018-08-14T22:44:31.397Z,99978.00
2018-08-14T22:46:59.085Z,99971.00
2018-08-14T22:49:26.773Z,99976.00
2018-08-14T22:51:54.372Z,99970.00
2018-08-14T22:54:22.031Z,99970.00
2018-08-14T22:56:49.927Z,99972.00
2018-08-14T22:59:17.500Z,99978.00
2018-08-14T23:01:46.284Z,99975.00
2018-08-14T23:04:14.136Z,99973.00
2018-08-14T23:06:41.888Z,99980.00
2018-08-14T23:09:09.801Z,99976.00
2018-08-14T23:11:37.387Z,99977.00
2018-08-14T23:14:05.724Z,99980.00
2018-08-14T23:16:33.408Z,99980.00
2018-08-14T23:19:01.102Z,99980.00
2018-08-14T23:21:28.577Z,99983.00
2018-08-14T23:23:56.440Z,99981.00
2018-08-14T23:26:23.988Z,99988.00
2018-08-14T23:28:51.670Z,99984.00
2018-08-14T23:31:19.457Z,99983.00
2018-08-14T23:33:47.224Z,99984.00
2018-08-14T23:36:14.879Z,99980.00
2018-08-14T23:38:42.872Z,99977.00
2018-08-14T23:41:10.875Z,99990.00
2018-08-14T23:43:38.476Z,99990.00
2018-08-14T23:46:06.133Z,99994.00
2018-08-14T23:48:33.670Z,99992.00
2018-08-14T23:51:01.280Z,99993.00
2018-08-14T23:53:29.082Z,99993.00
2018-08-14T23:55:56.725Z,99995.00
2018-08-14T23:58:24.326Z,99998.00
